createdAt,value
2017-12-31T00:00:27.472Z,717.05
2017-12-31T00:01:27.949Z,716.94
2017-12-31T00:02:28.419Z,716.72
2017-12-31T00:03:28.890Z,716.90
2017-12-31T00:04:29.361Z,716.20
2017-12-31T00:05:29.834Z,716.68
2017-12-31T00:06:30.333Z,716.64
2017-12-31T00:07:30.779Z,717.10
2017-12-31T00:08:31.249Z,716.98
2017-12-31T00:09:31.727Z,717.04
2017-12-31T00:10:32.193Z,716.76
2017-12-31T00:11:32.667Z,717.15
2017-12-31T00:12:33.138Z,716.78
2017-12-31T00:13:33.611Z,716.38
2017-12-31T00:14:34.084Z,716.55
2017-12-31T00:15:34.554Z,716.78
2017-12-31T00:16:35.029Z,717.18
2017-12-31T00:17:35.501Z,717.05
2017-12-31T00:18:35.974Z,717.17
2017-12-31T00:19:36.443Z,717.26
2017-12-31T00:20:36.916Z,717.16
2017-12-31T00:21:37.389Z,716.92
2017-12-31T00:22:37.911Z,717.11
2017-12-31T00:23:38.333Z,717.16
2017-12-31T00:24:38.807Z,716.76
2017-12-31T00:25:39.276Z,716.56
2017-12-31T00:26:39.749Z,716.97
2017-12-31T00:27:40.221Z,717.08
2017-12-31T00:28:40.693Z,716.90
2017-12-31T00:29:41.167Z,717.11
2017-12-31T00:30:41.637Z,716.99
2017-12-31T00:31:42.112Z,716.74
2017-12-31T00:32:42.585Z,716.98
2017-12-31T00:33:43.055Z,716.69
2017-12-31T00:34:43.528Z,717.13
2017-12-31T00:35:44.000Z,717.12
2017-12-31T00:36:44.473Z,716.84
2017-12-31T00:37:44.945Z,716.71
2017-12-31T00:38:45.415Z,717.17
2017-12-31T00:39:45.888Z,717.21
2017-12-31T00:40:46.364Z,717.32
2017-12-31T00:41:46.834Z,717.28
2017-12-31T00:42:47.305Z,717.11
2017-12-31T00:43:47.778Z,717.19
2017-12-31T00:44:48.249Z,717.09
2017-12-31T00:45:48.724Z,716.49
2017-12-31T00:46:49.194Z,716.26
2017-12-31T00:47:49.666Z,717.37
2017-12-31T00:48:50.140Z,717.37
2017-12-31T00:49:50.611Z,716.72
2017-12-31T00:50:51.083Z,716.91
2017-12-31T00:51:51.556Z,717.26
2017-12-31T00:52:52.035Z,716.99
2017-12-31T00:53:52.502Z,716.93
2017-12-31T00:54:52.975Z,717.06
2017-12-31T00:55:53.446Z,717.08
2017-12-31T00:56:53.918Z,717.04
2017-12-31T00:57:54.389Z,716.90
2017-12-31T00:58:54.861Z,717.03
2017-12-31T00:59:55.333Z,717.13
2017-12-31T01:00:55.809Z,717.13
2017-12-31T01:01:56.281Z,716.94
2017-12-31T01:02:56.750Z,716.80
2017-12-31T01:03:57.225Z,717.05
2017-12-31T01:04:57.698Z,716.53
2017-12-31T01:05:58.167Z,716.51
2017-12-31T01:06:58.639Z,716.81
2017-12-31T01:10:00.076Z,716.94
2017-12-31T01:11:00.532Z,716.55
2017-12-31T01:13:01.489Z,716.97
2017-12-31T01:15:02.436Z,716.63
2017-12-31T01:16:02.904Z,716.89
2017-12-31T01:17:03.376Z,717.09
2017-12-31T01:18:03.834Z,716.96
2017-12-31T01:19:04.321Z,716.90
2017-12-31T01:21:05.266Z,716.98
2017-12-31T01:22:05.739Z,716.77
2017-12-31T01:24:06.684Z,716.65
2017-12-31T01:25:07.143Z,717.11
2017-12-31T01:26:07.627Z,716.77
2017-12-31T01:27:08.099Z,717.20
2017-12-31T01:29:09.033Z,717.11
2017-12-31T01:30:09.519Z,716.38
2017-12-31T01:31:09.990Z,716.73
2017-12-31T01:32:10.460Z,717.16
2017-12-31T01:33:10.943Z,717.05
2017-12-31T01:34:11.456Z,716.97
2017-12-31T01:35:11.877Z,716.82
2017-12-31T01:36:12.338Z,716.62
2017-12-31T01:37:12.823Z,716.83
2017-12-31T01:38:13.297Z,717.10
2017-12-31T01:39:13.765Z,717.14
2017-12-31T01:40:14.240Z,716.85
2017-12-31T01:42:15.185Z,716.86
2017-12-31T01:45:16.604Z,716.88
2017-12-31T01:46:17.074Z,716.84
2017-12-31T01:47:17.533Z,717.04
2017-12-31T01:48:18.019Z,717.13
2017-12-31T01:51:19.437Z,716.98
2017-12-31T01:52:19.914Z,717.25
2017-12-31T01:53:20.382Z,716.93
2017-12-31T01:54:20.839Z,716.64
2017-12-31T01:55:21.325Z,716.92
2017-12-31T01:56:21.797Z,716.81
2017-12-31T01:58:22.742Z,716.68
2017-12-31T01:59:23.216Z,716.62
2017-12-31T02:00:23.689Z,716.81
2017-12-31T02:01:24.155Z,716.95
2017-12-31T02:02:24.632Z,716.87
2017-12-31T02:03:25.103Z,717.04
2017-12-31T02:04:25.580Z,717.05
2017-12-31T02:05:26.036Z,716.74
2017-12-31T02:06:26.510Z,716.75
2017-12-31T02:07:26.980Z,716.95
2017-12-31T02:08:27.452Z,716.99
2017-12-31T02:09:27.924Z,716.91
2017-12-31T02:10:28.397Z,716.93
2017-12-31T02:11:28.869Z,716.80
2017-12-31T02:12:29.342Z,716.84
2017-12-31T02:13:29.816Z,716.33
2017-12-31T02:14:30.288Z,716.75
2017-12-31T02:15:30.759Z,716.67
2017-12-31T02:16:31.231Z,716.33
2017-12-31T02:17:31.704Z,716.57
2017-12-31T02:18:32.179Z,716.79
2017-12-31T02:19:32.662Z,716.55
2017-12-31T02:20:33.135Z,716.87
2017-12-31T02:21:33.608Z,716.77
2017-12-31T02:22:34.068Z,716.97
2017-12-31T02:23:34.554Z,716.66
2017-12-31T02:24:35.024Z,716.87
2017-12-31T02:25:47.640Z,716.75
2017-12-31T02:26:35.971Z,716.72
2017-12-31T02:27:36.441Z,716.74
2017-12-31T02:29:37.373Z,716.88
2017-12-31T02:30:37.858Z,716.57
2017-12-31T02:31:38.331Z,716.52
2017-12-31T02:32:38.803Z,716.59
2017-12-31T02:33:39.276Z,716.88
2017-12-31T02:34:39.750Z,716.56
2017-12-31T02:36:40.684Z,716.89
2017-12-31T02:37:41.168Z,716.84
2017-12-31T02:38:41.641Z,716.84
2017-12-31T02:39:42.109Z,716.76
2017-12-31T02:40:42.570Z,716.85
2017-12-31T02:41:43.056Z,716.88
2017-12-31T02:42:43.529Z,716.77
2017-12-31T02:43:44.001Z,716.75
2017-12-31T02:44:44.459Z,716.25
2017-12-31T02:45:44.934Z,716.00
2017-12-31T02:46:45.406Z,716.40
2017-12-31T02:47:45.878Z,716.39
2017-12-31T02:48:46.364Z,716.03
2017-12-31T02:49:46.839Z,716.01
2017-12-31T02:50:47.295Z,716.34
2017-12-31T02:51:47.780Z,716.38
2017-12-31T02:52:48.254Z,716.49
2017-12-31T02:53:48.725Z,716.40
2017-12-31T02:54:49.199Z,716.69
2017-12-31T02:55:49.670Z,716.75
2017-12-31T02:56:50.144Z,716.49
2017-12-31T02:57:50.604Z,716.50
2017-12-31T02:58:51.089Z,716.61
2017-12-31T03:00:52.021Z,716.54
2017-12-31T03:02:52.977Z,716.68
2017-12-31T03:04:53.924Z,716.83
2017-12-31T03:05:54.397Z,716.92
2017-12-31T03:07:55.324Z,716.89
2017-12-31T03:08:55.812Z,716.89
2017-12-31T03:09:56.285Z,716.95
2017-12-31T03:10:56.742Z,716.95
2017-12-31T03:11:57.228Z,717.03
2017-12-31T03:12:57.702Z,716.65
2017-12-31T03:13:58.175Z,716.93
2017-12-31T03:14:58.632Z,716.84
2017-12-31T03:15:59.116Z,717.09
2017-12-31T03:16:59.582Z,716.88
2017-12-31T03:18:00.064Z,716.87
2017-12-31T03:19:00.535Z,717.01
2017-12-31T03:20:01.010Z,716.93
2017-12-31T03:21:01.465Z,716.76
2017-12-31T03:22:01.953Z,716.98
2017-12-31T03:23:02.425Z,717.13
2017-12-31T03:24:02.896Z,716.71
2017-12-31T03:25:03.370Z,716.45
2017-12-31T03:27:04.315Z,716.51
2017-12-31T03:28:04.772Z,716.69
2017-12-31T03:29:05.258Z,716.67
2017-12-31T03:30:05.721Z,716.97
2017-12-31T03:31:06.204Z,716.86
2017-12-31T03:32:06.676Z,717.18
2017-12-31T03:33:07.135Z,717.04
2017-12-31T03:34:07.621Z,716.72
2017-12-31T03:35:08.094Z,716.66
2017-12-31T03:36:08.565Z,716.64
2017-12-31T03:37:09.039Z,715.99
2017-12-31T03:38:21.641Z,716.58
2017-12-31T03:39:09.983Z,716.71
2017-12-31T03:40:10.456Z,716.64
2017-12-31T03:41:10.926Z,716.65
2017-12-31T03:42:11.401Z,716.74
2017-12-31T03:43:11.872Z,716.81
2017-12-31T03:46:13.289Z,716.88
2017-12-31T03:47:13.747Z,716.50
2017-12-31T03:48:14.233Z,716.88
2017-12-31T03:49:14.707Z,716.92
2017-12-31T03:50:15.179Z,716.99
2017-12-31T03:51:15.637Z,717.13
2017-12-31T03:52:16.122Z,717.07
2017-12-31T03:53:16.595Z,716.99
2017-12-31T03:54:17.068Z,717.07
2017-12-31T03:55:17.540Z,716.88
2017-12-31T03:56:18.014Z,717.03
2017-12-31T03:57:18.486Z,716.90
2017-12-31T03:58:18.942Z,716.78
2017-12-31T03:59:19.433Z,717.09
2017-12-31T04:00:19.900Z,717.08
2017-12-31T04:01:20.372Z,716.82
2017-12-31T04:02:20.831Z,717.04
2017-12-31T04:03:21.317Z,717.28
2017-12-31T04:04:21.791Z,716.93
2017-12-31T04:05:22.263Z,717.29
2017-12-31T04:06:22.734Z,717.09
2017-12-31T04:07:23.205Z,717.26
2017-12-31T04:08:23.678Z,717.10
2017-12-31T04:09:24.137Z,717.12
2017-12-31T04:10:24.623Z,717.32
2017-12-31T04:11:25.097Z,717.35
2017-12-31T04:14:26.513Z,717.49
2017-12-31T04:16:27.458Z,717.51
2017-12-31T04:17:27.930Z,717.25
2017-12-31T04:18:28.402Z,717.36
2017-12-31T04:20:29.345Z,717.11
2017-12-31T04:21:29.819Z,717.46
2017-12-31T04:22:30.291Z,717.36
2017-12-31T04:23:30.749Z,717.39
2017-12-31T04:24:31.236Z,717.42
2017-12-31T04:25:31.711Z,717.44
2017-12-31T04:26:32.182Z,717.38
2017-12-31T04:27:32.639Z,717.44
2017-12-31T04:28:33.124Z,717.39
2017-12-31T04:30:34.069Z,717.45
2017-12-31T04:31:34.527Z,717.57
2017-12-31T04:32:35.071Z,717.46
2017-12-31T04:33:35.489Z,717.26
2017-12-31T04:34:35.959Z,717.49
2017-12-31T04:35:36.433Z,717.47
2017-12-31T04:36:36.902Z,717.74
2017-12-31T04:38:37.846Z,717.40
2017-12-31T04:39:38.318Z,717.48
2017-12-31T04:40:38.789Z,717.36
2017-12-31T04:41:39.263Z,717.39
2017-12-31T04:42:39.721Z,717.49
2017-12-31T04:43:40.261Z,717.62
2017-12-31T04:44:40.682Z,717.66
2017-12-31T04:45:41.151Z,717.47
2017-12-31T04:46:41.624Z,717.45
2017-12-31T04:47:42.095Z,717.39
2017-12-31T04:48:42.566Z,717.59
2017-12-31T04:49:43.025Z,717.38
2017-12-31T04:50:43.512Z,717.43
2017-12-31T04:51:43.984Z,717.54
2017-12-31T04:52:44.454Z,717.21
2017-12-31T04:53:56.770Z,717.54
2017-12-31T04:54:45.400Z,717.54
2017-12-31T04:55:45.870Z,717.65
2017-12-31T04:56:46.345Z,717.62
2017-12-31T04:57:46.813Z,717.37
2017-12-31T04:58:47.275Z,717.52
2017-12-31T04:59:47.759Z,717.50
2017-12-31T05:00:48.230Z,717.82
2017-12-31T05:01:48.703Z,717.90
2017-12-31T05:02:49.160Z,717.72
2017-12-31T05:03:49.650Z,717.14
2017-12-31T05:04:50.121Z,717.49
2017-12-31T05:05:50.589Z,717.43
2017-12-31T05:06:51.064Z,717.69
2017-12-31T05:07:51.534Z,717.72
2017-12-31T05:08:51.997Z,717.83
2017-12-31T05:09:52.480Z,717.78
2017-12-31T05:10:52.954Z,717.85
2017-12-31T05:11:53.408Z,717.81
2017-12-31T05:12:53.894Z,717.93
2017-12-31T05:13:54.368Z,717.89
2017-12-31T05:14:54.839Z,718.01
2017-12-31T05:15:55.312Z,717.66
2017-12-31T05:16:55.783Z,717.72
2017-12-31T05:17:56.254Z,717.94
2017-12-31T05:18:56.713Z,717.83
2017-12-31T05:19:57.202Z,717.99
2017-12-31T05:20:57.668Z,717.74
2017-12-31T05:21:58.143Z,717.81
2017-12-31T05:22:58.601Z,717.78
2017-12-31T05:24:10.760Z,717.90
2017-12-31T05:24:59.560Z,717.82
2017-12-31T05:26:00.032Z,717.71
2017-12-31T05:27:00.502Z,717.82
2017-12-31T05:28:00.963Z,717.78
2017-12-31T05:29:01.446Z,717.83
2017-12-31T05:30:01.917Z,717.84
2017-12-31T05:31:02.389Z,717.81
2017-12-31T05:32:02.862Z,717.80
2017-12-31T05:33:03.334Z,717.65
2017-12-31T05:34:03.806Z,717.84
2017-12-31T05:35:04.276Z,717.71
2017-12-31T05:37:05.219Z,717.83
2017-12-31T05:38:05.681Z,717.73
2017-12-31T05:39:06.167Z,717.94
2017-12-31T05:40:06.637Z,717.92
2017-12-31T05:41:07.108Z,718.01
2017-12-31T05:42:07.568Z,717.77
2017-12-31T05:43:08.056Z,717.88
2017-12-31T05:44:08.512Z,717.99
2017-12-31T05:45:08.997Z,718.07
2017-12-31T05:46:09.470Z,717.95
2017-12-31T05:47:09.941Z,718.01
2017-12-31T05:48:10.402Z,718.11
2017-12-31T05:49:10.884Z,718.03
2017-12-31T05:50:11.356Z,718.07
2017-12-31T05:52:12.302Z,717.81
2017-12-31T05:53:12.771Z,717.83
2017-12-31T05:54:13.244Z,717.84
2017-12-31T05:55:13.702Z,717.77
2017-12-31T05:56:14.193Z,717.83
2017-12-31T05:57:14.660Z,717.76
2017-12-31T05:58:15.132Z,717.85
2017-12-31T05:59:15.604Z,717.87
2017-12-31T06:00:16.078Z,717.99
2017-12-31T06:01:16.549Z,718.05
2017-12-31T06:02:17.006Z,717.93
2017-12-31T06:03:17.491Z,717.96
2017-12-31T06:04:29.805Z,718.06
2017-12-31T06:05:18.435Z,717.97
2017-12-31T06:06:18.893Z,718.02
2017-12-31T06:07:19.383Z,717.96
2017-12-31T06:08:19.852Z,718.00
2017-12-31T06:09:20.324Z,717.89
2017-12-31T06:10:20.798Z,717.95
2017-12-31T06:11:21.268Z,717.99
2017-12-31T06:12:21.739Z,717.84
2017-12-31T06:13:22.201Z,717.86
2017-12-31T06:14:22.734Z,717.71
2017-12-31T06:15:23.156Z,717.84
2017-12-31T06:16:23.627Z,718.02
2017-12-31T06:17:24.100Z,717.94
2017-12-31T06:18:24.571Z,717.96
2017-12-31T06:19:25.095Z,717.93
2017-12-31T06:20:25.516Z,717.96
2017-12-31T06:21:25.986Z,717.97
2017-12-31T06:22:26.459Z,718.09
2017-12-31T06:23:26.934Z,718.04
2017-12-31T06:24:27.390Z,718.01
2017-12-31T06:25:27.877Z,718.08
2017-12-31T06:26:28.347Z,718.07
2017-12-31T06:27:28.810Z,718.08
2017-12-31T06:28:29.292Z,717.98
2017-12-31T06:29:29.765Z,717.88
2017-12-31T06:30:30.236Z,718.08
2017-12-31T06:31:30.695Z,718.08
2017-12-31T06:32:31.182Z,718.02
2017-12-31T06:33:31.653Z,717.98
2017-12-31T06:34:32.123Z,717.85
2017-12-31T06:35:32.595Z,717.81
2017-12-31T06:36:33.068Z,717.79
2017-12-31T06:37:33.526Z,717.80
2017-12-31T06:38:34.012Z,717.85
2017-12-31T06:39:34.487Z,717.90
2017-12-31T06:40:34.955Z,717.91
2017-12-31T06:41:35.429Z,717.89
2017-12-31T06:42:35.899Z,717.75
2017-12-31T06:43:36.375Z,717.80
2017-12-31T06:45:37.314Z,717.86
2017-12-31T06:46:37.788Z,717.75
2017-12-31T06:47:38.267Z,717.73
2017-12-31T06:48:38.718Z,717.93
2017-12-31T06:49:39.203Z,718.00
2017-12-31T06:50:39.674Z,717.94
2017-12-31T06:51:40.149Z,718.17
2017-12-31T06:52:40.604Z,718.10
2017-12-31T06:53:41.092Z,718.20
2017-12-31T06:54:41.566Z,718.04
2017-12-31T06:56:42.507Z,718.04
2017-12-31T06:57:42.978Z,718.13
2017-12-31T06:59:43.908Z,718.10
2017-12-31T07:00:44.396Z,718.05
2017-12-31T07:01:44.868Z,718.20
2017-12-31T07:02:45.341Z,718.15
2017-12-31T07:03:45.813Z,718.12
2017-12-31T07:04:46.268Z,718.13
2017-12-31T07:05:46.753Z,718.21
2017-12-31T07:06:47.227Z,718.34
2017-12-31T07:07:47.698Z,718.38
2017-12-31T07:08:48.170Z,718.15
2017-12-31T07:09:48.643Z,718.13
2017-12-31T07:10:49.121Z,718.21
2017-12-31T07:11:49.588Z,718.25
2017-12-31T07:12:50.061Z,718.21
2017-12-31T07:13:50.529Z,718.08
2017-12-31T07:14:51.003Z,718.16
2017-12-31T07:15:51.476Z,718.31
2017-12-31T07:16:51.947Z,718.26
2017-12-31T07:17:52.405Z,718.24
2017-12-31T07:18:52.892Z,718.33
2017-12-31T07:19:53.364Z,718.40
2017-12-31T07:22:54.779Z,718.31
2017-12-31T07:23:55.252Z,718.39
2017-12-31T07:24:55.725Z,718.32
2017-12-31T07:25:56.181Z,718.34
2017-12-31T07:26:56.668Z,718.25
2017-12-31T07:27:57.140Z,718.35
2017-12-31T07:28:57.614Z,718.30
2017-12-31T07:29:58.070Z,718.41
2017-12-31T07:30:58.543Z,718.41
2017-12-31T07:31:59.030Z,718.31
2017-12-31T07:32:59.504Z,718.44
2017-12-31T07:33:59.976Z,718.47
2017-12-31T07:35:00.432Z,718.36
2017-12-31T07:37:01.392Z,718.29
2017-12-31T07:38:01.864Z,718.32
2017-12-31T07:39:02.325Z,718.23
2017-12-31T07:40:02.813Z,718.27
2017-12-31T07:41:03.283Z,718.34
2017-12-31T07:42:03.759Z,718.40
2017-12-31T07:43:04.228Z,718.51
2017-12-31T07:44:04.702Z,718.47
2017-12-31T07:45:05.175Z,718.45
2017-12-31T07:46:05.645Z,718.33
2017-12-31T07:47:06.120Z,718.23
2017-12-31T07:48:06.593Z,718.30
2017-12-31T07:49:07.066Z,718.48
2017-12-31T07:51:08.014Z,718.39
2017-12-31T07:52:08.471Z,718.26
2017-12-31T07:53:08.961Z,718.53
2017-12-31T07:54:09.430Z,718.01
2017-12-31T07:56:10.376Z,718.11
2017-12-31T07:57:10.851Z,718.16
2017-12-31T07:58:11.324Z,718.15
2017-12-31T07:59:11.800Z,718.23
2017-12-31T08:00:12.323Z,718.13
2017-12-31T08:01:12.730Z,718.05
2017-12-31T08:02:13.202Z,718.23
2017-12-31T08:03:13.692Z,718.26
2017-12-31T08:04:14.168Z,718.04
2017-12-31T08:05:14.641Z,718.15
2017-12-31T08:06:15.110Z,718.18
2017-12-31T08:07:15.586Z,718.11
2017-12-31T08:09:16.522Z,718.28
2017-12-31T08:10:17.014Z,718.05
2017-12-31T08:11:17.481Z,718.38
2017-12-31T08:12:17.954Z,718.13
2017-12-31T08:13:18.415Z,718.05
2017-12-31T08:14:18.901Z,718.36
2017-12-31T08:15:19.375Z,718.25
2017-12-31T08:16:19.850Z,718.10
2017-12-31T08:17:20.325Z,718.07
2017-12-31T08:18:20.797Z,718.26
2017-12-31T08:19:21.271Z,718.18
2017-12-31T08:20:21.731Z,718.15
2017-12-31T08:21:22.220Z,718.36
2017-12-31T08:22:22.693Z,718.38
2017-12-31T08:23:23.167Z,718.08
2017-12-31T08:24:23.637Z,718.19
2017-12-31T08:25:24.118Z,718.23
2017-12-31T08:26:24.591Z,718.27
2017-12-31T08:28:25.526Z,718.16
2017-12-31T08:29:26.019Z,718.02
2017-12-31T08:30:26.495Z,718.22
2017-12-31T08:31:26.963Z,718.21
2017-12-31T08:32:27.437Z,718.40
2017-12-31T08:33:27.912Z,718.40
2017-12-31T08:34:28.385Z,718.38
2017-12-31T08:35:28.858Z,718.50
2017-12-31T08:36:29.336Z,718.41
2017-12-31T08:37:29.809Z,718.48
2017-12-31T08:38:30.285Z,718.51
2017-12-31T08:39:30.758Z,718.29
2017-12-31T08:40:31.234Z,718.39
2017-12-31T08:41:31.710Z,718.49
2017-12-31T08:42:32.184Z,718.59
2017-12-31T08:43:32.645Z,718.66
2017-12-31T08:44:33.133Z,718.63
2017-12-31T08:45:44.942Z,718.42
2017-12-31T08:46:34.084Z,718.49
2017-12-31T08:47:34.555Z,718.71
2017-12-31T08:48:35.035Z,718.61
2017-12-31T08:49:35.510Z,718.47
2017-12-31T08:50:35.983Z,718.90
2017-12-31T08:51:36.459Z,718.52
2017-12-31T08:52:36.936Z,718.66
2017-12-31T08:53:37.397Z,718.53
2017-12-31T08:54:37.886Z,718.65
2017-12-31T08:57:39.297Z,718.96
2017-12-31T08:58:39.787Z,718.70
2017-12-31T08:59:40.261Z,718.80
2017-12-31T09:00:40.740Z,718.68
2017-12-31T09:01:41.215Z,718.82
2017-12-31T09:02:41.689Z,718.73
2017-12-31T09:03:42.166Z,718.83
2017-12-31T09:04:42.626Z,718.89
2017-12-31T09:05:43.119Z,718.85
2017-12-31T09:07:44.066Z,718.83
2017-12-31T09:08:44.544Z,718.86
2017-12-31T09:09:45.019Z,718.97
2017-12-31T09:11:45.969Z,718.76
2017-12-31T09:12:46.446Z,718.68
2017-12-31T09:14:47.382Z,718.72
2017-12-31T09:15:47.872Z,718.76
2017-12-31T09:16:48.349Z,718.56
2017-12-31T09:19:49.777Z,718.69
2017-12-31T09:20:50.254Z,718.67
2017-12-31T09:21:50.728Z,718.61
2017-12-31T09:22:51.210Z,718.87
2017-12-31T09:23:51.669Z,718.66
2017-12-31T09:25:52.637Z,718.77
2017-12-31T09:28:54.064Z,718.91
2017-12-31T09:29:54.542Z,718.59
2017-12-31T09:30:55.002Z,718.87
2017-12-31T09:31:55.493Z,718.82
2017-12-31T09:32:55.970Z,719.01
2017-12-31T09:33:56.449Z,718.92
2017-12-31T09:34:56.909Z,718.86
2017-12-31T09:36:57.877Z,718.88
2017-12-31T09:37:58.354Z,718.98
2017-12-31T09:38:58.830Z,718.67
2017-12-31T09:39:59.306Z,718.82
2017-12-31T09:40:59.785Z,718.80
2017-12-31T09:42:00.250Z,718.91
2017-12-31T09:43:00.738Z,718.83
2017-12-31T09:44:01.216Z,718.79
2017-12-31T09:47:02.645Z,718.74
2017-12-31T09:49:03.589Z,718.69
2017-12-31T09:50:04.077Z,718.73
2017-12-31T09:51:04.555Z,718.67
2017-12-31T09:52:05.030Z,718.74
2017-12-31T09:53:05.494Z,718.95
2017-12-31T09:54:05.986Z,718.90
2017-12-31T09:55:06.465Z,718.88
2017-12-31T09:56:06.940Z,718.87
2017-12-31T09:57:07.419Z,718.77
2017-12-31T09:58:07.893Z,718.68
2017-12-31T09:59:08.356Z,718.72
2017-12-31T10:00:08.846Z,718.84
2017-12-31T10:01:09.322Z,718.76
2017-12-31T10:02:09.797Z,718.81
2017-12-31T10:03:10.260Z,718.80
2017-12-31T10:05:11.224Z,718.74
2017-12-31T10:06:11.698Z,718.87
2017-12-31T10:07:12.158Z,718.57
2017-12-31T10:08:12.648Z,718.79
2017-12-31T10:09:13.121Z,718.75
2017-12-31T10:10:13.596Z,718.87
2017-12-31T10:11:14.071Z,718.88
2017-12-31T10:12:14.543Z,718.77
2017-12-31T10:13:15.021Z,718.75
2017-12-31T10:14:15.479Z,718.76
2017-12-31T10:15:15.967Z,718.85
2017-12-31T10:16:16.436Z,718.82
2017-12-31T10:17:16.912Z,718.71
2017-12-31T10:18:17.370Z,718.83
2017-12-31T10:19:17.855Z,718.67
2017-12-31T10:20:18.335Z,718.74
2017-12-31T10:21:18.804Z,718.70
2017-12-31T10:22:19.262Z,718.78
2017-12-31T10:23:19.746Z,718.70
2017-12-31T10:24:32.008Z,718.66
2017-12-31T10:25:20.692Z,718.66
2017-12-31T10:26:21.166Z,718.63
2017-12-31T10:27:21.638Z,718.70
2017-12-31T10:28:22.112Z,718.78
2017-12-31T10:29:22.571Z,718.69
2017-12-31T10:30:23.056Z,718.63
2017-12-31T10:31:23.528Z,718.78
2017-12-31T10:32:24.001Z,718.81
2017-12-31T10:33:24.475Z,718.64
2017-12-31T10:34:37.042Z,718.53
2017-12-31T10:35:25.423Z,718.52
2017-12-31T10:36:25.879Z,718.58
2017-12-31T10:37:26.366Z,718.58
2017-12-31T10:39:27.314Z,718.62
2017-12-31T10:40:27.787Z,718.61
2017-12-31T10:41:28.260Z,718.62
2017-12-31T10:43:29.193Z,718.48
2017-12-31T10:44:29.668Z,718.53
2017-12-31T10:46:30.630Z,718.64
2017-12-31T10:47:31.104Z,718.77
2017-12-31T10:48:31.580Z,718.59
2017-12-31T10:49:32.105Z,718.61
2017-12-31T10:50:32.526Z,718.59
2017-12-31T10:51:32.990Z,718.55
2017-12-31T10:52:33.476Z,718.61
2017-12-31T10:53:33.954Z,718.71
2017-12-31T10:54:34.425Z,718.64
2017-12-31T10:55:34.903Z,718.61
2017-12-31T10:56:35.381Z,718.49
2017-12-31T10:58:36.312Z,718.55
2017-12-31T10:59:49.034Z,718.68
2017-12-31T11:00:37.276Z,718.65
2017-12-31T11:01:37.749Z,718.53
2017-12-31T11:02:38.226Z,718.45
2017-12-31T11:03:38.701Z,718.38
2017-12-31T11:05:39.638Z,718.46
2017-12-31T11:06:40.128Z,718.45
2017-12-31T11:07:40.612Z,718.49
2017-12-31T11:08:41.078Z,718.49
2017-12-31T11:09:41.555Z,718.42
2017-12-31T11:10:42.031Z,718.45
2017-12-31T11:11:42.505Z,718.49
2017-12-31T11:12:42.970Z,718.56
2017-12-31T11:13:43.457Z,718.51
2017-12-31T11:14:43.945Z,718.57
2017-12-31T11:15:44.412Z,718.52
2017-12-31T11:16:44.887Z,718.42
2017-12-31T11:17:45.349Z,718.64
2017-12-31T11:18:45.839Z,718.46
2017-12-31T11:19:46.315Z,718.62
2017-12-31T11:21:47.256Z,718.47
2017-12-31T11:22:47.745Z,718.40
2017-12-31T11:23:48.221Z,718.37
2017-12-31T11:25:49.175Z,718.49
2017-12-31T11:26:49.652Z,718.38
2017-12-31T11:27:50.170Z,718.44
2017-12-31T11:28:50.592Z,718.54
2017-12-31T11:30:51.562Z,718.24
2017-12-31T11:31:52.034Z,718.44
2017-12-31T11:33:52.988Z,718.23
2017-12-31T11:34:53.516Z,718.41
2017-12-31T11:36:54.418Z,718.21
2017-12-31T11:37:54.882Z,718.51
2017-12-31T11:38:55.373Z,718.31
2017-12-31T11:41:08.069Z,718.34
2017-12-31T11:41:56.809Z,718.16
2017-12-31T11:42:57.285Z,718.24
2017-12-31T11:44:58.279Z,718.39
2017-12-31T11:45:58.712Z,718.35
2017-12-31T11:46:59.192Z,718.22
2017-12-31T11:49:00.142Z,718.13
2017-12-31T11:50:00.605Z,718.21
2017-12-31T11:51:01.094Z,718.29
2017-12-31T11:52:01.568Z,718.22
2017-12-31T11:53:02.043Z,718.20
2017-12-31T11:54:02.519Z,718.16
2017-12-31T11:55:02.994Z,718.28
2017-12-31T11:56:03.469Z,718.26
2017-12-31T11:57:03.929Z,718.21
2017-12-31T11:58:04.420Z,718.32
2017-12-31T11:59:04.893Z,718.00
2017-12-31T12:00:05.367Z,718.21
2017-12-31T12:01:05.825Z,718.14
2017-12-31T12:02:06.313Z,718.08
2017-12-31T12:03:06.788Z,718.24
2017-12-31T12:04:07.261Z,718.29
2017-12-31T12:05:07.732Z,718.11
2017-12-31T12:06:08.208Z,718.01
2017-12-31T12:07:08.680Z,718.17
2017-12-31T12:08:09.136Z,718.23
2017-12-31T12:09:09.623Z,718.16
2017-12-31T12:10:10.097Z,718.21
2017-12-31T12:11:10.569Z,718.09
2017-12-31T12:12:11.041Z,718.13
2017-12-31T12:13:11.518Z,718.14
2017-12-31T12:15:12.459Z,718.00
2017-12-31T12:16:12.930Z,717.95
2017-12-31T12:17:13.404Z,718.09
2017-12-31T12:18:13.877Z,717.75
2017-12-31T12:19:14.351Z,718.10
2017-12-31T12:21:15.281Z,718.05
2017-12-31T12:22:15.770Z,718.09
2017-12-31T12:23:16.240Z,718.15
2017-12-31T12:24:16.713Z,717.92
2017-12-31T12:25:17.188Z,717.95
2017-12-31T12:26:29.145Z,717.97
2017-12-31T12:27:18.135Z,718.05
2017-12-31T12:29:19.066Z,717.86
2017-12-31T12:30:19.554Z,717.74
2017-12-31T12:32:20.502Z,717.93
2017-12-31T12:33:20.959Z,718.00
2017-12-31T12:34:21.450Z,717.87
2017-12-31T12:35:21.922Z,717.85
2017-12-31T12:36:22.396Z,717.96
2017-12-31T12:38:23.332Z,717.92
2017-12-31T12:39:23.819Z,717.80
2017-12-31T12:40:24.292Z,717.71
2017-12-31T12:41:24.767Z,717.85
2017-12-31T12:42:25.241Z,717.80
2017-12-31T12:43:25.718Z,717.81
2017-12-31T12:44:26.190Z,717.72
2017-12-31T12:45:26.651Z,717.92
2017-12-31T12:46:27.140Z,717.99
2017-12-31T12:47:27.616Z,717.89
2017-12-31T12:48:28.088Z,717.74
2017-12-31T12:49:28.564Z,717.73
2017-12-31T12:51:29.504Z,717.83
2017-12-31T12:52:29.991Z,717.94
2017-12-31T12:53:30.465Z,717.97
2017-12-31T12:54:30.940Z,717.72
2017-12-31T12:55:31.401Z,717.71
2017-12-31T12:56:31.892Z,717.96
2017-12-31T12:57:32.371Z,717.65
2017-12-31T12:58:32.844Z,717.60
2017-12-31T12:59:33.328Z,717.63
2017-12-31T13:00:33.792Z,717.60
2017-12-31T13:01:34.272Z,717.47
2017-12-31T13:02:34.732Z,717.52
2017-12-31T13:03:35.219Z,717.73
2017-12-31T13:05:36.175Z,717.72
2017-12-31T13:06:36.651Z,717.67
2017-12-31T13:07:37.115Z,717.57
2017-12-31T13:08:37.602Z,717.56
2017-12-31T13:09:38.070Z,717.71
2017-12-31T13:10:38.558Z,717.60
2017-12-31T13:11:39.027Z,717.64
2017-12-31T13:12:39.506Z,717.74
2017-12-31T13:13:39.970Z,717.80
2017-12-31T13:14:40.461Z,717.76
2017-12-31T13:15:40.939Z,717.58
2017-12-31T13:16:41.412Z,717.66
2017-12-31T13:17:41.889Z,717.51
2017-12-31T13:18:42.364Z,717.67
2017-12-31T13:19:42.841Z,717.69
2017-12-31T13:20:43.305Z,717.52
2017-12-31T13:21:43.795Z,717.72
2017-12-31T13:22:44.257Z,717.52
2017-12-31T13:23:44.752Z,717.58
2017-12-31T13:24:45.225Z,717.51
2017-12-31T13:25:45.700Z,717.67
2017-12-31T13:26:46.229Z,717.51
2017-12-31T13:27:46.656Z,717.63
2017-12-31T13:28:47.131Z,717.67
2017-12-31T13:29:47.594Z,717.74
2017-12-31T13:30:48.085Z,717.72
2017-12-31T13:31:48.561Z,717.65
2017-12-31T13:32:49.036Z,717.81
2017-12-31T13:33:49.514Z,717.64
2017-12-31T13:34:49.989Z,717.76
2017-12-31T13:35:50.465Z,717.79
2017-12-31T13:36:50.990Z,717.57
2017-12-31T13:37:51.419Z,717.79
2017-12-31T13:38:51.889Z,717.87
2017-12-31T13:39:52.364Z,717.77
2017-12-31T13:40:52.826Z,717.54
